KZR335 UACC-UAUU
Flight info
| Callsign | KZR335 |
|---|---|
| Flight time | 0h 58m |
| Altitude | 38000 |
| Route | KODOL6G KODOL T523 ATBAN L994 DOKUT DOKUT3G |
| Aircraft | A320/M-SDE1FGHIJ1RWXYZ/LB1 |
Departure
| Time | 2026-04-25 11:23 |
|---|---|
| Airport | Nursultan Nazarbayev International Airport (UACC) |
Arrival
| Time | 2026-04-25 12:22 |
|---|---|
| Airport | Kostanay International Airport (UAUU) |
| Time | Latitude | Longitude | Altitude | Speed | Heading |
|---|---|---|---|---|---|
| 2026-04-25 10:23 | 51.02658 | 71.45925 | 1164 ft | 0 kts | 45° |
| 2026-04-25 11:11 | 51.02653 | 71.45917 | 1163 ft | 2 kts | 43° |
| 2026-04-25 11:11 | 51.02638 | 71.45898 | 1187 ft | 3 kts | 29° |
| 2026-04-25 11:11 | 51.02620 | 71.45884 | 1161 ft | 3 kts | 15° |
| 2026-04-25 11:11 | 51.02600 | 71.45877 | 1161 ft | 3 kts | 16° |
| 2026-04-25 11:12 | 51.02587 | 71.45872 | 1162 ft | 3 kts | 84° |
| 2026-04-25 11:12 | 51.02578 | 71.45884 | 1163 ft | 1 kts | 136° |
| 2026-04-25 11:12 | 51.02579 | 71.45883 | 1163 ft | 0 kts | 136° |
| 2026-04-25 11:15 | 51.02543 | 71.45936 | 1163 ft | 11 kts | 137° |
| 2026-04-25 11:15 | 51.02488 | 71.46019 | 1164 ft | 11 kts | 134° |
| 2026-04-25 11:16 | 51.02390 | 71.46178 | 1163 ft | 9 kts | 135° |
| 2026-04-25 11:16 | 51.02348 | 71.46233 | 1163 ft | 7 kts | 156° |
| 2026-04-25 11:16 | 51.02297 | 71.46216 | 1164 ft | 14 kts | 214° |
| 2026-04-25 11:17 | 51.02223 | 71.46107 | 1164 ft | 14 kts | 225° |
| 2026-04-25 11:17 | 51.02159 | 71.46007 | 1163 ft | 12 kts | 224° |
| 2026-04-25 11:17 | 51.02104 | 71.45921 | 1164 ft | 10 kts | 224° |
| 2026-04-25 11:17 | 51.02051 | 71.45838 | 1164 ft | 15 kts | 224° |
| 2026-04-25 11:18 | 51.01967 | 71.45708 | 1164 ft | 16 kts | 224° |
| 2026-04-25 11:18 | 51.01890 | 71.45588 | 1164 ft | 15 kts | 224° |
| 2026-04-25 11:18 | 51.01822 | 71.45482 | 1164 ft | 13 kts | 224° |
| 2026-04-25 11:18 | 51.01762 | 71.45388 | 1164 ft | 11 kts | 224° |
| 2026-04-25 11:19 | 51.01710 | 71.45307 | 1164 ft | 11 kts | 224° |
| 2026-04-25 11:19 | 51.01646 | 71.45207 | 1164 ft | 12 kts | 225° |
| 2026-04-25 11:19 | 51.01586 | 71.45113 | 1164 ft | 13 kts | 224° |
| 2026-04-25 11:19 | 51.01527 | 71.45022 | 1164 ft | 11 kts | 225° |
| 2026-04-25 11:20 | 51.01472 | 71.44935 | 1164 ft | 11 kts | 224° |
| 2026-04-25 11:20 | 51.01420 | 71.44855 | 1164 ft | 10 kts | 224° |
| 2026-04-25 11:20 | 51.01367 | 71.44772 | 1164 ft | 14 kts | 224° |
| 2026-04-25 11:20 | 51.01287 | 71.44699 | 1164 ft | 13 kts | 179° |
| 2026-04-25 11:21 | 51.01219 | 71.44764 | 1162 ft | 11 kts | 134° |
| 2026-04-25 11:21 | 51.01171 | 71.44850 | 1165 ft | 9 kts | 121° |
| 2026-04-25 11:21 | 51.01181 | 71.44941 | 1162 ft | 9 kts | 48° |
| 2026-04-25 11:21 | 51.01194 | 71.44961 | 1167 ft | 0 kts | 44° |
| 2026-04-25 11:22 | 51.01196 | 71.44963 | 1167 ft | 3 kts | 44° |
| 2026-04-25 11:22 | 51.01268 | 71.45074 | 1167 ft | 48 kts | 44° |
| 2026-04-25 11:23 | 51.01678 | 71.45716 | 1166 ft | 115 kts | 44° |
| 2026-04-25 11:23 | 51.02390 | 71.46803 | 1169 ft | 166 kts | 43° |
| 2026-04-25 11:23 | 51.03269 | 71.48140 | 1611 ft | 176 kts | 45° |
| 2026-04-25 11:23 | 51.04148 | 71.49519 | 2271 ft | 179 kts | 45° |
| 2026-04-25 11:24 | 51.05038 | 71.50927 | 2931 ft | 181 kts | 44° |
| 2026-04-25 11:24 | 51.05969 | 71.52406 | 3327 ft | 200 kts | 45° |
| 2026-04-25 11:24 | 51.06998 | 71.54030 | 3683 ft | 219 kts | 44° |
| 2026-04-25 11:24 | 51.08170 | 71.55772 | 3987 ft | 242 kts | 34° |
| 2026-04-25 11:25 | 51.09791 | 71.56784 | 4375 ft | 263 kts | 9° |
| 2026-04-25 11:25 | 51.11634 | 71.57426 | 5036 ft | 275 kts | 10° |
| 2026-04-25 11:25 | 51.13514 | 71.58113 | 5911 ft | 280 kts | 11° |
| 2026-04-25 11:25 | 51.15425 | 71.58839 | 6787 ft | 284 kts | 11° |
| 2026-04-25 11:26 | 51.17365 | 71.59496 | 7588 ft | 287 kts | 1° |
| 2026-04-25 11:26 | 51.19322 | 71.59095 | 8347 ft | 283 kts | 333° |
| 2026-04-25 11:26 | 51.20964 | 71.57430 | 9020 ft | 282 kts | 308° |
| 2026-04-25 11:26 | 51.21988 | 71.54821 | 9770 ft | 277 kts | 283° |
| 2026-04-25 11:27 | 51.22513 | 71.51835 | 10349 ft | 288 kts | 279° |
| 2026-04-25 11:27 | 51.23044 | 71.48618 | 10598 ft | 312 kts | 280° |
| 2026-04-25 11:27 | 51.23617 | 71.45166 | 10870 ft | 332 kts | 281° |
| 2026-04-25 11:27 | 51.24018 | 71.42787 | 11251 ft | 337 kts | 281° |
| 2026-04-25 11:28 | 51.24847 | 71.37911 | 12232 ft | 343 kts | 281° |
| 2026-04-25 11:28 | 51.25474 | 71.34227 | 12983 ft | 346 kts | 281° |
| 2026-04-25 11:28 | 51.26105 | 71.30505 | 13722 ft | 349 kts | 281° |
| 2026-04-25 11:28 | 51.26739 | 71.26749 | 14386 ft | 352 kts | 281° |
| 2026-04-25 11:29 | 51.27375 | 71.22958 | 15039 ft | 355 kts | 281° |
| 2026-04-25 11:29 | 51.28013 | 71.19139 | 15690 ft | 357 kts | 281° |
| 2026-04-25 11:29 | 51.28655 | 71.15283 | 16331 ft | 360 kts | 281° |
| 2026-04-25 11:29 | 51.29301 | 71.11401 | 16976 ft | 363 kts | 281° |
| 2026-04-25 11:30 | 51.29954 | 71.07489 | 17621 ft | 366 kts | 281° |
| 2026-04-25 11:30 | 51.30612 | 71.03550 | 18258 ft | 369 kts | 281° |
| 2026-04-25 11:30 | 51.31271 | 70.99577 | 18809 ft | 371 kts | 281° |
| 2026-04-25 11:30 | 51.31930 | 70.95579 | 19366 ft | 374 kts | 281° |
| 2026-04-25 11:31 | 51.32594 | 70.91541 | 19931 ft | 377 kts | 281° |
| 2026-04-25 11:31 | 51.33262 | 70.87475 | 20478 ft | 379 kts | 281° |
| 2026-04-25 11:31 | 51.33932 | 70.83398 | 21017 ft | 382 kts | 282° |
| 2026-04-25 11:31 | 51.34610 | 70.79273 | 21540 ft | 384 kts | 282° |
| 2026-04-25 11:32 | 51.35285 | 70.75123 | 22057 ft | 386 kts | 282° |
| 2026-04-25 11:32 | 51.35959 | 70.70946 | 22560 ft | 389 kts | 282° |
| 2026-04-25 11:32 | 51.36638 | 70.66745 | 23053 ft | 391 kts | 282° |
| 2026-04-25 11:32 | 51.37321 | 70.62518 | 23520 ft | 394 kts | 282° |
| 2026-04-25 11:33 | 51.38009 | 70.58267 | 23913 ft | 396 kts | 282° |
| 2026-04-25 11:33 | 51.38701 | 70.53990 | 24289 ft | 398 kts | 282° |
| 2026-04-25 11:33 | 51.39390 | 70.49695 | 24660 ft | 400 kts | 282° |
| 2026-04-25 11:33 | 51.40081 | 70.45363 | 25034 ft | 402 kts | 282° |
| 2026-04-25 11:34 | 51.40774 | 70.41025 | 25402 ft | 404 kts | 282° |
| 2026-04-25 11:34 | 51.41469 | 70.36656 | 25752 ft | 405 kts | 282° |
| 2026-04-25 11:34 | 51.42165 | 70.32265 | 26105 ft | 407 kts | 281° |
| 2026-04-25 11:34 | 51.42862 | 70.27859 | 26459 ft | 409 kts | 281° |
| 2026-04-25 11:35 | 51.43564 | 70.23425 | 26790 ft | 411 kts | 281° |
| 2026-04-25 11:35 | 51.44268 | 70.18973 | 27121 ft | 413 kts | 281° |
| 2026-04-25 11:35 | 51.44974 | 70.14501 | 27441 ft | 415 kts | 281° |
| 2026-04-25 11:35 | 51.45680 | 70.10008 | 27752 ft | 416 kts | 281° |
| 2026-04-25 11:36 | 51.46384 | 70.05500 | 28061 ft | 418 kts | 281° |
| 2026-04-25 11:36 | 51.47089 | 70.00966 | 28353 ft | 419 kts | 281° |
| 2026-04-25 11:36 | 51.47796 | 69.96421 | 28633 ft | 421 kts | 281° |
| 2026-04-25 11:36 | 51.48605 | 69.91896 | 28915 ft | 425 kts | 287° |
| 2026-04-25 11:37 | 51.49826 | 69.87550 | 29178 ft | 430 kts | 294° |
| 2026-04-25 11:37 | 51.51212 | 69.83287 | 29447 ft | 431 kts | 294° |
| 2026-04-25 11:37 | 51.52596 | 69.79025 | 29801 ft | 430 kts | 294° |
| 2026-04-25 11:37 | 51.53973 | 69.74773 | 30131 ft | 429 kts | 294° |
| 2026-04-25 11:38 | 51.55342 | 69.70528 | 30444 ft | 427 kts | 293° |
| 2026-04-25 11:38 | 51.56704 | 69.66289 | 30752 ft | 426 kts | 293° |
| 2026-04-25 11:38 | 51.58058 | 69.62059 | 31052 ft | 425 kts | 293° |
| 2026-04-25 11:38 | 51.59409 | 69.57838 | 31356 ft | 424 kts | 293° |
| 2026-04-25 11:39 | 51.60758 | 69.53628 | 31664 ft | 423 kts | 293° |
| 2026-04-25 11:39 | 51.62100 | 69.49436 | 31970 ft | 422 kts | 293° |
| 2026-04-25 11:39 | 51.63437 | 69.45244 | 32290 ft | 421 kts | 293° |
| 2026-04-25 11:39 | 51.64773 | 69.41044 | 32598 ft | 420 kts | 293° |
| 2026-04-25 11:40 | 51.66098 | 69.36872 | 32899 ft | 419 kts | 293° |
| 2026-04-25 11:40 | 51.67421 | 69.32706 | 33217 ft | 418 kts | 293° |
| 2026-04-25 11:40 | 51.68741 | 69.28531 | 33523 ft | 417 kts | 292° |
| 2026-04-25 11:40 | 51.70053 | 69.24375 | 33834 ft | 416 kts | 292° |
| 2026-04-25 11:41 | 51.71364 | 69.20227 | 34099 ft | 415 kts | 292° |
| 2026-04-25 11:41 | 51.72673 | 69.16076 | 34337 ft | 415 kts | 292° |
| 2026-04-25 11:41 | 51.73975 | 69.11930 | 34559 ft | 415 kts | 292° |
| 2026-04-25 11:41 | 51.75282 | 69.07767 | 34788 ft | 415 kts | 292° |
| 2026-04-25 11:42 | 51.76588 | 69.03608 | 34999 ft | 416 kts | 292° |
| 2026-04-25 11:42 | 51.77893 | 68.99447 | 35211 ft | 416 kts | 292° |
| 2026-04-25 11:42 | 51.79197 | 68.95280 | 35403 ft | 416 kts | 292° |
| 2026-04-25 11:42 | 51.80501 | 68.91098 | 35598 ft | 417 kts | 292° |
| 2026-04-25 11:43 | 51.81800 | 68.86909 | 35786 ft | 417 kts | 292° |
| 2026-04-25 11:43 | 51.83098 | 68.82716 | 35977 ft | 417 kts | 292° |
| 2026-04-25 11:43 | 51.84398 | 68.78521 | 36158 ft | 418 kts | 292° |
| 2026-04-25 11:43 | 51.85701 | 68.74317 | 36333 ft | 418 kts | 292° |
| 2026-04-25 11:44 | 51.87004 | 68.70112 | 36513 ft | 418 kts | 292° |
| 2026-04-25 11:44 | 51.88310 | 68.65903 | 36697 ft | 418 kts | 292° |
| 2026-04-25 11:44 | 51.89612 | 68.61693 | 36867 ft | 419 kts | 291° |
| 2026-04-25 11:44 | 51.90912 | 68.57472 | 37037 ft | 419 kts | 291° |
| 2026-04-25 11:45 | 51.92204 | 68.53249 | 37206 ft | 419 kts | 291° |
| 2026-04-25 11:45 | 51.93496 | 68.49020 | 37373 ft | 418 kts | 291° |
| 2026-04-25 11:45 | 51.94781 | 68.44802 | 37531 ft | 418 kts | 291° |
| 2026-04-25 11:45 | 51.96070 | 68.40569 | 37700 ft | 418 kts | 291° |
| 2026-04-25 11:46 | 51.97361 | 68.36346 | 37855 ft | 418 kts | 291° |
| 2026-04-25 11:46 | 51.98628 | 68.32096 | 37897 ft | 419 kts | 290° |
| 2026-04-25 11:46 | 52.01065 | 68.23499 | 37888 ft | 419 kts | 289° |
| 2026-04-25 11:47 | 52.03458 | 68.14854 | 37887 ft | 420 kts | 289° |
| 2026-04-25 11:47 | 52.05868 | 68.06188 | 37879 ft | 421 kts | 289° |
| 2026-04-25 11:48 | 52.08316 | 67.97456 | 37874 ft | 422 kts | 289° |
| 2026-04-25 11:48 | 52.10755 | 67.88765 | 37875 ft | 423 kts | 289° |
| 2026-04-25 11:49 | 52.13182 | 67.80048 | 37873 ft | 423 kts | 289° |
| 2026-04-25 11:49 | 52.15593 | 67.71306 | 37866 ft | 424 kts | 289° |
| 2026-04-25 11:50 | 52.18002 | 67.62543 | 37863 ft | 424 kts | 289° |
| 2026-04-25 11:50 | 52.20414 | 67.53756 | 37869 ft | 425 kts | 289° |
| 2026-04-25 11:51 | 52.22826 | 67.44952 | 37876 ft | 425 kts | 289° |
| 2026-04-25 11:51 | 52.25230 | 67.36141 | 37867 ft | 425 kts | 288° |
| 2026-04-25 11:52 | 52.27636 | 67.27313 | 37867 ft | 426 kts | 288° |
| 2026-04-25 11:52 | 52.30036 | 67.18479 | 37870 ft | 425 kts | 288° |
| 2026-04-25 11:53 | 52.32423 | 67.09629 | 37873 ft | 425 kts | 288° |
| 2026-04-25 11:53 | 52.34773 | 67.00831 | 37866 ft | 425 kts | 288° |
| 2026-04-25 11:54 | 52.37156 | 66.91897 | 37866 ft | 426 kts | 288° |
| 2026-04-25 11:55 | 52.40703 | 66.78573 | 37863 ft | 426 kts | 288° |
| 2026-04-25 11:55 | 52.43053 | 66.69657 | 37861 ft | 426 kts | 287° |
| 2026-04-25 11:56 | 52.45354 | 66.60701 | 37861 ft | 427 kts | 287° |
| 2026-04-25 11:56 | 52.47639 | 66.51715 | 37858 ft | 427 kts | 287° |
| 2026-04-25 11:57 | 52.49937 | 66.42722 | 37866 ft | 428 kts | 287° |
| 2026-04-25 11:57 | 52.52227 | 66.33705 | 37864 ft | 428 kts | 286° |
| 2026-04-25 11:58 | 52.54520 | 66.24672 | 37866 ft | 429 kts | 286° |
| 2026-04-25 11:58 | 52.56798 | 66.15629 | 37869 ft | 429 kts | 286° |
| 2026-04-25 11:59 | 52.59077 | 66.06545 | 37873 ft | 429 kts | 286° |
| 2026-04-25 11:59 | 52.61350 | 65.97472 | 37862 ft | 429 kts | 286° |
| 2026-04-25 12:00 | 52.64358 | 65.85381 | 37867 ft | 429 kts | 286° |
| 2026-04-25 12:00 | 52.66607 | 65.76295 | 37581 ft | 428 kts | 285° |
| 2026-04-25 12:01 | 52.67727 | 65.71745 | 37323 ft | 428 kts | 285° |
| 2026-04-25 12:01 | 52.68844 | 65.67201 | 37064 ft | 428 kts | 285° |
| 2026-04-25 12:01 | 52.69963 | 65.62654 | 36796 ft | 428 kts | 285° |
| 2026-04-25 12:01 | 52.71080 | 65.58108 | 36538 ft | 428 kts | 285° |
| 2026-04-25 12:02 | 52.73312 | 65.49003 | 36033 ft | 428 kts | 284° |
| 2026-04-25 12:02 | 52.74424 | 65.44450 | 35747 ft | 428 kts | 284° |
| 2026-04-25 12:02 | 52.75542 | 65.39868 | 34925 ft | 432 kts | 284° |
| 2026-04-25 12:03 | 52.76684 | 65.35283 | 34091 ft | 435 kts | 284° |
| 2026-04-25 12:03 | 52.77859 | 65.30652 | 33086 ft | 438 kts | 284° |
| 2026-04-25 12:03 | 52.79042 | 65.26036 | 32124 ft | 438 kts | 284° |
| 2026-04-25 12:03 | 52.80286 | 65.21403 | 31131 ft | 445 kts | 288° |
| 2026-04-25 12:04 | 52.81885 | 65.16951 | 30084 ft | 455 kts | 294° |
| 2026-04-25 12:04 | 52.83612 | 65.12521 | 28816 ft | 461 kts | 294° |
| 2026-04-25 12:04 | 52.85354 | 65.08064 | 27658 ft | 461 kts | 294° |
| 2026-04-25 12:04 | 52.87085 | 65.03649 | 26962 ft | 452 kts | 294° |
| 2026-04-25 12:05 | 52.88786 | 64.99312 | 26235 ft | 447 kts | 294° |
| 2026-04-25 12:05 | 52.90465 | 64.95012 | 25509 ft | 442 kts | 294° |
| 2026-04-25 12:05 | 52.92117 | 64.90753 | 24807 ft | 438 kts | 294° |
| 2026-04-25 12:05 | 52.93749 | 64.86517 | 24106 ft | 434 kts | 294° |
| 2026-04-25 12:06 | 52.95363 | 64.82313 | 23413 ft | 431 kts | 294° |
| 2026-04-25 12:06 | 52.96963 | 64.78132 | 22663 ft | 427 kts | 294° |
| 2026-04-25 12:06 | 52.98548 | 64.73998 | 22031 ft | 421 kts | 294° |
| 2026-04-25 12:06 | 53.00113 | 64.69921 | 21410 ft | 416 kts | 293° |
| 2026-04-25 12:07 | 53.01658 | 64.65891 | 20827 ft | 411 kts | 293° |
| 2026-04-25 12:07 | 53.03185 | 64.61900 | 20267 ft | 407 kts | 293° |
| 2026-04-25 12:07 | 53.04693 | 64.57961 | 19730 ft | 402 kts | 293° |
| 2026-04-25 12:07 | 53.06180 | 64.54061 | 19208 ft | 398 kts | 293° |
| 2026-04-25 12:08 | 53.07652 | 64.50187 | 18703 ft | 394 kts | 292° |
| 2026-04-25 12:08 | 53.09103 | 64.46357 | 18225 ft | 390 kts | 292° |
| 2026-04-25 12:08 | 53.10542 | 64.42550 | 17677 ft | 387 kts | 292° |
| 2026-04-25 12:08 | 53.11966 | 64.38790 | 17174 ft | 382 kts | 293° |
| 2026-04-25 12:09 | 53.13378 | 64.35063 | 16675 ft | 378 kts | 293° |
| 2026-04-25 12:09 | 53.14771 | 64.31378 | 16128 ft | 375 kts | 294° |
| 2026-04-25 12:09 | 53.16156 | 64.27700 | 15621 ft | 372 kts | 294° |
| 2026-04-25 12:09 | 53.17523 | 64.24062 | 15083 ft | 369 kts | 294° |
| 2026-04-25 12:10 | 53.18881 | 64.20436 | 14528 ft | 368 kts | 295° |
| 2026-04-25 12:10 | 53.20232 | 64.16827 | 13980 ft | 366 kts | 295° |
| 2026-04-25 12:10 | 53.21593 | 64.13190 | 13381 ft | 364 kts | 296° |
| 2026-04-25 12:10 | 53.22929 | 64.09618 | 12806 ft | 361 kts | 296° |
| 2026-04-25 12:11 | 53.24249 | 64.06089 | 12305 ft | 355 kts | 296° |
| 2026-04-25 12:11 | 53.25547 | 64.02624 | 11824 ft | 350 kts | 296° |
| 2026-04-25 12:11 | 53.26829 | 63.99195 | 11261 ft | 347 kts | 297° |
| 2026-04-25 12:11 | 53.28097 | 63.95800 | 10772 ft | 342 kts | 297° |
| 2026-04-25 12:12 | 53.29323 | 63.92525 | 10644 ft | 321 kts | 297° |
| 2026-04-25 12:12 | 53.30092 | 63.90477 | 10554 ft | 308 kts | 297° |
| 2026-04-25 12:12 | 53.31549 | 63.86571 | 10364 ft | 286 kts | 296° |
| 2026-04-25 12:12 | 53.32579 | 63.83778 | 10128 ft | 280 kts | 296° |
| 2026-04-25 12:13 | 53.33590 | 63.81018 | 9892 ft | 276 kts | 296° |
| 2026-04-25 12:13 | 53.34592 | 63.78283 | 9785 ft | 275 kts | 296° |
| 2026-04-25 12:13 | 53.35592 | 63.75557 | 9658 ft | 275 kts | 296° |
| 2026-04-25 12:13 | 53.36592 | 63.72834 | 9432 ft | 276 kts | 296° |
| 2026-04-25 12:14 | 53.37602 | 63.70089 | 9008 ft | 275 kts | 296° |
| 2026-04-25 12:14 | 53.38609 | 63.67353 | 8487 ft | 278 kts | 296° |
| 2026-04-25 12:14 | 53.39608 | 63.64638 | 8145 ft | 270 kts | 296° |
| 2026-04-25 12:14 | 53.40583 | 63.61981 | 7475 ft | 267 kts | 296° |
| 2026-04-25 12:15 | 53.41549 | 63.59342 | 6817 ft | 264 kts | 296° |
| 2026-04-25 12:15 | 53.42504 | 63.56741 | 6227 ft | 260 kts | 296° |
| 2026-04-25 12:15 | 53.43319 | 63.54109 | 5673 ft | 248 kts | 280° |
| 2026-04-25 12:15 | 53.43349 | 63.51305 | 5158 ft | 240 kts | 252° |
| 2026-04-25 12:16 | 53.42752 | 63.48781 | 4947 ft | 222 kts | 246° |
| 2026-04-25 12:16 | 53.42147 | 63.46532 | 4895 ft | 204 kts | 238° |
| 2026-04-25 12:16 | 53.41118 | 63.45052 | 4845 ft | 195 kts | 203° |
| 2026-04-25 12:16 | 53.39797 | 63.44717 | 4792 ft | 189 kts | 190° |
| 2026-04-25 12:17 | 53.38538 | 63.44492 | 4750 ft | 176 kts | 192° |
| 2026-04-25 12:17 | 53.37359 | 63.44249 | 4649 ft | 165 kts | 192° |
| 2026-04-25 12:17 | 53.36245 | 63.44178 | 4574 ft | 158 kts | 178° |
| 2026-04-25 12:17 | 53.35207 | 63.44705 | 4500 ft | 152 kts | 167° |
| 2026-04-25 12:18 | 53.34224 | 63.45342 | 4225 ft | 151 kts | 166° |
| 2026-04-25 12:18 | 53.33253 | 63.46007 | 3809 ft | 151 kts | 166° |
| 2026-04-25 12:18 | 53.32278 | 63.46690 | 3393 ft | 153 kts | 166° |
| 2026-04-25 12:18 | 53.31286 | 63.47392 | 2972 ft | 156 kts | 166° |
| 2026-04-25 12:19 | 53.29657 | 63.48554 | 2389 ft | 149 kts | 162° |
| 2026-04-25 12:19 | 53.28405 | 63.49447 | 2069 ft | 145 kts | 164° |
| 2026-04-25 12:19 | 53.27482 | 63.50108 | 1867 ft | 144 kts | 163° |
| 2026-04-25 12:20 | 53.26568 | 63.50764 | 1640 ft | 143 kts | 164° |
| 2026-04-25 12:20 | 53.25658 | 63.51407 | 1459 ft | 141 kts | 163° |
| 2026-04-25 12:20 | 53.24746 | 63.52050 | 1278 ft | 142 kts | 162° |
| 2026-04-25 12:20 | 53.23839 | 63.52690 | 1049 ft | 142 kts | 160° |
| 2026-04-25 12:21 | 53.22929 | 63.53344 | 889 ft | 143 kts | 161° |
| 2026-04-25 12:21 | 53.22014 | 63.53996 | 727 ft | 143 kts | 160° |
| 2026-04-25 12:21 | 53.21109 | 63.54632 | 610 ft | 134 kts | 157° |
| 2026-04-25 12:21 | 53.20384 | 63.55152 | 590 ft | 89 kts | 156° |
| 2026-04-25 12:22 | 53.19971 | 63.55441 | 584 ft | 40 kts | 158° |
| 2026-04-25 12:22 | 53.19821 | 63.55545 | 584 ft | 13 kts | 158° |
| 2026-04-25 12:22 | 53.19739 | 63.55551 | 584 ft | 13 kts | 172° |
| 2026-04-25 12:22 | 53.19729 | 63.55595 | 583 ft | 1 kts | 11° |
| 2026-04-25 12:23 | 53.19732 | 63.55595 | 583 ft | 1 kts | 5° |
| 2026-04-25 12:23 | 53.19813 | 63.55547 | 584 ft | 21 kts | 337° |
| 2026-04-25 12:23 | 53.19953 | 63.55449 | 584 ft | 22 kts | 337° |
| 2026-04-25 12:23 | 53.20103 | 63.55343 | 584 ft | 25 kts | 337° |
| 2026-04-25 12:24 | 53.20262 | 63.55232 | 586 ft | 25 kts | 337° |
| 2026-04-25 12:24 | 53.20422 | 63.55116 | 590 ft | 25 kts | 336° |
| 2026-04-25 12:24 | 53.20586 | 63.55003 | 593 ft | 26 kts | 337° |
| 2026-04-25 12:24 | 53.20753 | 63.54885 | 595 ft | 26 kts | 337° |
| 2026-04-25 12:25 | 53.20925 | 63.54762 | 596 ft | 28 kts | 336° |
| 2026-04-25 12:25 | 53.21103 | 63.54635 | 599 ft | 28 kts | 337° |
| 2026-04-25 12:25 | 53.21281 | 63.54511 | 604 ft | 27 kts | 337° |
| 2026-04-25 12:25 | 53.21456 | 63.54385 | 609 ft | 24 kts | 338° |
| 2026-04-25 12:26 | 53.21558 | 63.54313 | 604 ft | 14 kts | 336° |
| 2026-04-25 12:26 | 53.21643 | 63.54254 | 608 ft | 12 kts | 338° |
| 2026-04-25 12:26 | 53.21717 | 63.54212 | 608 ft | 10 kts | 347° |
| 2026-04-25 12:26 | 53.21773 | 63.54250 | 605 ft | 8 kts | 47° |
| 2026-04-25 12:27 | 53.21795 | 63.54312 | 616 ft | 5 kts | 63° |
| 2026-04-25 12:27 | 53.21827 | 63.54429 | 617 ft | 18 kts | 66° |
| 2026-04-25 12:27 | 53.21875 | 63.54618 | 610 ft | 17 kts | 67° |
| 2026-04-25 12:27 | 53.21920 | 63.54790 | 615 ft | 15 kts | 66° |
| 2026-04-25 12:28 | 53.21960 | 63.54946 | 615 ft | 14 kts | 67° |
| 2026-04-25 12:28 | 53.21994 | 63.55084 | 610 ft | 11 kts | 67° |
| 2026-04-25 12:28 | 53.22025 | 63.55176 | 610 ft | 8 kts | 47° |
| 2026-04-25 12:28 | 53.22065 | 63.55228 | 622 ft | 7 kts | 29° |
| 2026-04-25 12:29 | 53.22090 | 63.55207 | 607 ft | 4 kts | 275° |
| 2026-04-25 12:29 | 53.22096 | 63.55183 | 610 ft | 1 kts | 325° |
| 2026-04-25 12:29 | 53.22099 | 63.55183 | 613 ft | 0 kts | 336° |